Time;durP1;ratioP1;P1;durP2;ratioP2;P2;SDS_P1;SDS_P2;PMS_P1;PMS_P2;Temp;Humidity;BMP_temperature;BMP_pressure;BME280_temperature;BME280_humidity;BME280_pressure;Samples;Min_cycle;Max_cycle;Signal;HPM_P1;HPM_P2
2021/04/05 00:01:16;;;;;;;16.83;7.28;;;4.80;99.90;;;;;;5022165;28;20134;-89
2021/04/05 00:03:43;;;;;;;17.40;7.25;;;4.80;99.90;;;;;;5035648;28;20077;-87
2021/04/05 00:06:09;;;;;;;12.88;7.07;;;4.70;99.90;;;;;;5023651;28;20201;-87
2021/04/05 00:08:36;;;;;;;20.23;7.05;;;4.70;99.90;;;;;;5044254;28;20136;-88
2021/04/05 00:11:05;;;;;;;14.40;6.20;;;4.60;99.90;;;;;;5035749;28;20053;-90
2021/04/05 00:13:44;;;;;;;15.13;6.78;;;4.60;99.90;;;;;;5016672;28;20140;-88
2021/04/05 00:16:19;;;;;;;14.98;7.10;;;4.50;99.90;;;;;;5036098;28;20047;-89
2021/04/05 00:18:50;;;;;;;16.92;7.45;;;4.40;99.90;;;;;;5045553;28;20163;-86
2021/04/05 00:21:25;;;;;;;16.90;7.13;;;4.40;99.90;;;;;;5034814;28;20144;-88
2021/04/05 00:23:52;;;;;;;14.55;6.72;;;4.40;99.90;;;;;;5017902;28;20128;-86
2021/04/05 00:26:20;;;;;;;15.32;7.05;;;4.40;99.90;;;;;;5033665;28;20144;-87
2021/04/05 00:28:47;;;;;;;14.50;6.53;;;4.40;99.90;;;;;;5037749;28;20064;-87
2021/04/05 00:31:14;;;;;;;13.50;6.25;;;4.40;99.90;;;;;;5036835;28;20064;-89
2021/04/05 00:33:40;;;;;;;16.00;7.43;;;4.30;99.90;;;;;;5034773;28;20077;-89
2021/04/05 00:36:07;;;;;;;14.73;6.22;;;4.20;99.90;;;;;;5020991;28;20128;-86
2021/04/05 00:38:34;;;;;;;12.18;6.55;;;4.10;99.90;;;;;;5046656;28;20138;-88
2021/04/05 00:41:04;;;;;;;13.07;6.55;;;4.10;99.90;;;;;;5050105;28;20045;-88
2021/04/05 00:43:34;;;;;;;13.02;6.05;;;4.00;99.90;;;;;;5040398;28;20378;-88
2021/04/05 00:46:02;;;;;;;13.55;6.70;;;3.90;99.90;;;;;;5045993;28;20045;-88
2021/04/05 00:48:31;;;;;;;13.05;6.75;;;3.90;99.90;;;;;;5017250;28;20049;-87
2021/04/05 00:51:10;;;;;;;19.55;7.25;;;3.80;99.90;;;;;;5021263;28;20041;-87
2021/04/05 00:53:39;;;;;;;22.63;6.70;;;3.70;99.90;;;;;;5038532;28;20485;-87
2021/04/05 00:56:09;;;;;;;17.20;7.20;;;3.60;99.90;;;;;;5043952;28;20164;-88
2021/04/05 00:58:36;;;;;;;15.55;7.03;;;3.50;99.90;;;;;;5039018;28;20149;-87
2021/04/05 01:01:11;;;;;;;13.80;7.10;;;3.50;99.90;;;;;;5028282;28;20132;-89
2021/04/05 01:03:43;;;;;;;13.27;6.75;;;3.50;99.90;;;;;;5039600;28;20506;-86
2021/04/05 01:06:31;;;;;;;10.75;6.53;;;3.50;99.90;;;;;;5050186;28;20057;-86
2021/04/05 01:09:01;;;;;;;16.73;6.47;;;3.50;99.90;;;;;;5024316;28;20154;-87
2021/04/05 01:11:34;;;;;;;16.83;7.03;;;3.50;99.90;;;;;;5032871;28;20103;-87
2021/04/05 01:14:09;;;;;;;16.17;7.47;;;3.40;99.90;;;;;;5042121;28;20072;-89
2021/04/05 01:16:36;;;;;;;15.98;7.70;;;3.40;99.90;;;;;;5037410;28;20141;-87
2021/04/05 01:19:07;;;;;;;12.35;6.75;;;3.30;99.90;;;;;;5050071;28;20076;-86
2021/04/05 01:21:37;;;;;;;22.17;7.53;;;3.20;99.90;;;;;;5026172;28;20116;-87
2021/04/05 01:24:05;;;;;;;13.35;6.93;;;3.10;99.90;;;;;;5038869;28;20060;-88
2021/04/05 01:26:33;;;;;;;20.83;7.03;;;3.10;99.90;;;;;;5032273;28;20069;-87
2021/04/05 01:29:00;;;;;;;16.80;6.88;;;3.00;99.90;;;;;;5034216;28;20696;-87
2021/04/05 01:31:31;;;;;;;15.80;6.97;;;2.80;99.90;;;;;;5038708;28;20091;-86
2021/04/05 01:33:57;;;;;;;15.07;6.47;;;2.70;99.90;;;;;;5036346;28;20110;-87
2021/04/05 01:36:25;;;;;;;18.25;7.72;;;2.70;99.90;;;;;;5042064;28;20128;-88
2021/04/05 01:38:53;;;;;;;12.30;6.55;;;2.70;99.90;;;;;;5038169;28;20144;-87
2021/04/05 01:41:26;;;;;;;17.80;7.47;;;2.70;99.90;;;;;;5038808;28;20125;-87
2021/04/05 01:43:56;;;;;;;13.45;6.57;;;2.70;99.90;;;;;;5043537;28;20080;-87
2021/04/05 01:46:25;;;;;;;17.13;6.78;;;2.80;99.90;;;;;;5035720;28;20171;-88
2021/04/05 01:48:52;;;;;;;13.48;7.18;;;3.00;99.90;;;;;;5022555;28;20055;-88
2021/04/05 01:51:21;;;;;;;16.42;6.80;;;3.10;99.90;;;;;;5047954;28;20152;-88
2021/04/05 01:53:49;;;;;;;14.27;6.15;;;3.10;99.90;;;;;;5027472;28;20136;-87
2021/04/05 01:56:17;;;;;;;13.55;6.72;;;3.20;99.90;;;;;;5038124;28;20048;-89
2021/04/05 01:58:47;;;;;;;11.80;6.45;;;3.20;99.90;;;;;;5047389;28;20059;-87
2021/04/05 02:01:29;;;;;;;16.17;7.35;;;3.20;99.90;;;;;;5020735;28;20534;-87
2021/04/05 02:03:59;;;;;;;15.88;7.07;;;3.10;99.90;;;;;;5023357;28;20136;-86
2021/04/05 02:06:27;;;;;;;16.85;7.00;;;3.10;99.90;;;;;;5036880;28;20490;-87
2021/04/05 02:08:54;;;;;;;13.13;7.10;;;3.10;99.90;;;;;;5031241;28;20414;-87
2021/04/05 02:11:29;;;;;;;15.02;7.10;;;3.00;99.90;;;;;;5047340;28;20041;-88
2021/04/05 02:13:59;;;;;;;16.40;7.65;;;3.10;99.90;;;;;;5038098;28;20080;-87
2021/04/05 02:16:29;;;;;;;16.55;7.00;;;3.10;99.90;;;;;;5055275;28;20076;-89
2021/04/05 02:18:57;;;;;;;15.13;7.18;;;3.10;99.90;;;;;;5045963;28;20446;-90
2021/04/05 02:21:25;;;;;;;14.45;6.68;;;3.10;99.90;;;;;;5040907;28;20056;-88
2021/04/05 02:23:54;;;;;;;14.35;6.93;;;3.10;99.90;;;;;;5047399;28;20051;-88
2021/04/05 02:26:25;;;;;;;13.18;7.22;;;3.20;99.90;;;;;;5036911;28;20380;-87
2021/04/05 02:29:02;;;;;;;15.13;6.90;;;3.30;99.90;;;;;;5025771;28;20109;-88
2021/04/05 02:31:32;;;;;;;15.30;6.78;;;3.30;99.90;;;;;;5035376;28;20069;-88
2021/04/05 02:34:04;;;;;;;;;;;3.30;99.90;;;;;;5043882;28;20192;-88
2021/04/05 02:36:33;;;;;;;11.57;6.65;;;3.30;99.90;;;;;;5038022;28;19983;-86
2021/04/05 02:39:09;;;;;;;19.27;6.78;;;3.30;99.90;;;;;;5036208;28;20110;-88
2021/04/05 02:41:40;;;;;;;15.27;7.15;;;3.20;99.90;;;;;;5025813;28;20131;-88
2021/04/05 02:44:08;;;;;;;16.40;7.45;;;3.20;99.90;;;;;;5037126;28;20061;-88
2021/04/05 02:46:37;;;;;;;14.07;7.70;;;3.10;99.90;;;;;;5043762;28;20116;-88
2021/04/05 02:49:10;;;;;;;15.23;6.18;;;3.10;99.90;;;;;;5037603;28;20079;-88
2021/04/05 02:51:45;;;;;;;14.05;7.05;;;3.10;99.90;;;;;;5025992;28;20128;-87
2021/04/05 02:54:13;;;;;;;16.52;7.35;;;3.10;99.90;;;;;;5043180;28;20130;-88
2021/04/05 02:56:41;;;;;;;13.70;7.00;;;3.00;99.90;;;;;;5019870;28;20180;-87
2021/04/05 02:59:08;;;;;;;13.18;7.00;;;2.90;99.90;;;;;;5035912;28;20316;-88
2021/04/05 03:01:35;;;;;;;19.75;7.80;;;2.80;99.90;;;;;;5038857;28;20132;-88
2021/04/05 03:04:05;;;;;;;15.00;7.18;;;2.70;99.90;;;;;;5025974;28;20148;-88
2021/04/05 03:06:31;;;;;;;18.30;7.20;;;2.60;99.90;;;;;;5042192;28;20052;-86
2021/04/05 03:09:00;;;;;;;19.17;7.20;;;2.50;99.90;;;;;;5025579;28;20131;-86
2021/04/05 03:11:27;;;;;;;11.77;7.03;;;2.40;99.90;;;;;;5041393;28;20063;-87
2021/04/05 03:13:59;;;;;;;16.90;6.85;;;2.30;99.90;;;;;;5000336;28;20045;-88
2021/04/05 03:16:27;;;;;;;16.55;7.40;;;2.30;99.90;;;;;;5033488;28;20049;-87
2021/04/05 03:18:57;;;;;;;14.27;7.38;;;2.20;99.90;;;;;;5016327;28;20080;-87
2021/04/05 03:21:24;;;;;;;25.25;7.65;;;2.20;99.90;;;;;;5038804;28;20415;-88
2021/04/05 03:23:52;;;;;;;14.50;7.10;;;2.20;99.90;;;;;;5037263;28;20132;-88
2021/04/05 03:26:20;;;;;;;16.30;7.22;;;2.30;99.90;;;;;;5046340;28;20063;-86
2021/04/05 03:28:47;;;;;;;13.73;7.18;;;2.30;99.90;;;;;;5034178;28;20056;-87
2021/04/05 03:31:18;;;;;;;15.45;7.97;;;2.30;99.90;;;;;;5034461;28;20085;-88
2021/04/05 03:34:20;;;;;;;15.27;7.63;;;2.40;99.90;;;;;;5021335;28;20056;-89
2021/04/05 03:37:00;;;;;;;14.85;8.07;;;2.40;99.90;;;;;;5034013;28;20056;-88
2021/04/05 03:39:27;;;;;;;15.45;7.82;;;2.30;99.90;;;;;;5038231;28;20057;-87
2021/04/05 03:42:07;;;;;;;14.00;7.05;;;2.40;99.90;;;;;;5030034;28;20080;-85
2021/04/05 03:44:58;;;;;;;13.82;6.90;;;2.50;99.90;;;;;;5019035;28;20045;-88
2021/04/05 03:47:46;;;;;;;20.88;8.02;;;2.50;99.90;;;;;;5028767;28;20111;-86
2021/04/05 03:50:28;;;;;;;12.48;6.63;;;2.70;99.90;;;;;;5021870;28;20071;-87
2021/04/05 03:53:10;;;;;;;13.73;7.93;;;2.80;99.90;;;;;;5047054;28;20128;-87
2021/04/05 03:55:43;;;;;;;14.40;7.03;;;2.90;99.90;;;;;;5042827;28;20073;-87
2021/04/05 03:58:13;;;;;;;18.05;7.20;;;3.00;99.90;;;;;;5047491;28;20060;-89
2021/04/05 04:00:43;;;;;;;15.23;6.85;;;3.00;99.90;;;;;;5048918;28;20045;-88
2021/04/05 04:03:16;;;;;;;11.55;6.13;;;3.00;99.90;;;;;;5029324;28;20056;-91
2021/04/05 04:05:56;;;;;;;13.38;6.78;;;3.10;99.90;;;;;;5026817;28;20118;-88
2021/04/05 04:08:44;;;;;;;19.60;6.93;;;3.10;99.90;;;;;;5029750;28;20430;-88
2021/04/05 04:11:14;;;;;;;17.30;6.65;;;3.10;99.90;;;;;;5028165;28;20127;-88
2021/04/05 04:13:46;;;;;;;16.85;7.50;;;3.10;99.90;;;;;;5023863;28;20140;-86
2021/04/05 04:16:13;;;;;;;13.93;6.43;;;3.10;99.90;;;;;;5057316;28;20052;-88
2021/04/05 04:18:41;;;;;;;12.70;7.93;;;3.00;99.90;;;;;;5050504;28;20128;-87
2021/04/05 04:21:09;;;;;;;17.23;6.72;;;3.00;99.90;;;;;;5023747;28;20148;-90
2021/04/05 04:23:40;;;;;;;15.35;7.00;;;2.90;99.90;;;;;;5016926;28;20053;-88
2021/04/05 04:26:06;;;;;;;18.80;7.57;;;2.90;99.90;;;;;;5019284;28;20049;-89
2021/04/05 04:28:35;;;;;;;14.38;7.45;;;2.90;99.90;;;;;;5025761;28;20057;-88
2021/04/05 04:31:04;;;;;;;12.63;6.47;;;2.90;99.90;;;;;;5040819;28;20454;-89
2021/04/05 04:33:32;;;;;;;19.85;7.70;;;2.90;99.90;;;;;;5034552;28;20057;-87
2021/04/05 04:36:01;;;;;;;15.07;6.85;;;2.90;99.90;;;;;;5039688;28;20132;-86
2021/04/05 04:38:29;;;;;;;22.77;8.20;;;2.90;99.90;;;;;;5024300;28;20084;-89
2021/04/05 04:40:56;;;;;;;17.63;7.65;;;2.90;99.90;;;;;;5039153;28;20053;-87
2021/04/05 04:43:23;;;;;;;15.40;7.03;;;2.80;99.90;;;;;;5016743;28;20383;-86
2021/04/05 04:45:49;;;;;;;15.18;7.00;;;2.80;99.90;;;;;;5041772;28;20051;-87
2021/04/05 04:48:15;;;;;;;12.95;7.07;;;2.80;99.90;;;;;;5041936;28;20064;-88
2021/04/05 04:50:42;;;;;;;16.00;7.25;;;2.80;99.90;;;;;;5047697;28;20397;-87
2021/04/05 04:53:09;;;;;;;15.57;7.07;;;2.80;99.90;;;;;;5025649;28;20048;-86
2021/04/05 04:55:38;;;;;;;13.13;6.75;;;2.80;99.90;;;;;;5035707;28;20075;-88
2021/04/05 04:58:08;;;;;;;12.98;5.75;;;2.70;99.90;;;;;;5040205;28;20692;-88
2021/04/05 05:00:34;;;;;;;14.57;7.13;;;2.70;99.90;;;;;;5019912;28;20072;-90
2021/04/05 05:03:02;;;;;;;13.80;7.10;;;2.70;99.90;;;;;;5037285;28;20045;-88
2021/04/05 05:05:31;;;;;;;15.90;6.85;;;2.70;99.90;;;;;;5054114;28;20057;-90
2021/04/05 05:07:59;;;;;;;15.73;6.43;;;2.70;99.90;;;;;;5048619;28;20152;-88
2021/04/05 05:10:31;;;;;;;11.23;6.45;;;2.70;99.90;;;;;;5049150;28;20046;-88
2021/04/05 05:12:58;;;;;;;14.10;6.65;;;2.80;99.90;;;;;;5051477;28;20057;-88
2021/04/05 05:15:30;;;;;;;11.20;6.72;;;2.80;99.90;;;;;;5024783;28;20042;-89
2021/04/05 05:17:58;;;;;;;13.18;6.40;;;2.90;99.90;;;;;;5051311;28;20095;-87
2021/04/05 05:20:26;;;;;;;18.05;6.78;;;3.00;99.90;;;;;;5036398;28;20117;-88
2021/04/05 05:23:00;;;;;;;11.05;5.93;;;3.10;99.90;;;;;;5013290;28;20056;-92
2021/04/05 05:25:31;;;;;;;12.57;6.50;;;3.10;99.90;;;;;;5037174;28;20157;-89
2021/04/05 05:28:06;;;;;;;14.18;6.32;;;3.20;99.90;;;;;;5019350;28;20072;-89
2021/04/05 05:30:34;;;;;;;11.80;5.80;;;3.30;99.90;;;;;;5034277;28;20053;-88
2021/04/05 05:33:04;;;;;;;12.27;6.60;;;3.40;99.90;;;;;;5038832;28;20132;-92
2021/04/05 05:35:36;;;;;;;12.68;6.57;;;3.50;99.90;;;;;;5036298;28;20524;-90
2021/04/05 05:38:07;;;;;;;14.75;6.80;;;3.50;99.90;;;;;;5022160;28;20041;-89
2021/04/05 05:40:35;;;;;;;17.20;6.50;;;3.60;99.90;;;;;;5035390;28;20041;-90
2021/04/05 05:43:12;;;;;;;14.13;6.68;;;3.60;99.90;;;;;;5036605;28;20041;-89
2021/04/05 05:46:00;;;;;;;14.57;6.55;;;3.50;99.90;;;;;;5034645;28;20045;-90
2021/04/05 05:48:48;;;;;;;14.35;6.55;;;3.50;99.90;;;;;;5036447;28;20045;-89
2021/04/05 05:51:53;;;;;;;14.88;6.50;;;3.50;99.90;;;;;;5034838;28;20049;-91
2021/04/05 05:54:20;;;;;;;15.48;6.65;;;3.50;99.90;;;;;;5023752;28;20045;-88
2021/04/05 05:59:51;;;;;;;12.10;5.65;;;3.70;99.90;;;;;;5260272;23;20065;-83
2021/04/05 06:02:38;;;;;;;17.73;6.47;;;3.80;99.90;;;;;;5029123;28;20053;-83
2021/04/05 06:05:35;;;;;;;14.60;6.25;;;4.00;99.90;;;;;;5033215;28;20048;-83
2021/04/05 06:08:33;;;;;;;15.50;6.13;;;4.20;99.90;;;;;;5033341;28;20068;-82
2021/04/05 06:11:06;;;;;;;13.55;6.50;;;4.40;99.90;;;;;;5033510;28;20480;-80
2021/04/05 06:13:58;;;;;;;12.63;6.57;;;4.60;99.90;;;;;;5034568;28;20069;-82
2021/04/05 06:16:34;;;;;;;14.20;7.35;;;4.70;99.90;;;;;;5033622;28;20386;-80
2021/04/05 06:19:06;;;;;;;15.98;6.15;;;4.80;99.90;;;;;;5032026;28;20049;-82
2021/04/05 06:21:50;;;;;;;15.82;5.80;;;4.90;99.90;;;;;;5033381;28;20507;-83
2021/04/05 06:24:27;;;;;;;11.60;5.75;;;4.90;99.90;;;;;;5031987;28;20368;-87
2021/04/05 06:26:55;;;;;;;14.25;6.35;;;5.00;99.90;;;;;;5034011;28;20046;-84
2021/04/05 06:29:52;;;;;;;14.10;6.43;;;5.10;99.90;;;;;;5034167;28;20057;-85
2021/04/05 06:32:32;;;;;;;13.65;5.80;;;5.20;99.90;;;;;;5032521;28;20056;-85
2021/04/05 06:35:23;;;;;;;11.88;6.07;;;5.20;99.90;;;;;;5029899;28;20144;-85
2021/04/05 06:37:58;;;;;;;11.27;5.85;;;5.30;99.90;;;;;;5030359;28;20480;-86
2021/04/05 06:40:29;;;;;;;11.20;5.30;;;5.40;99.90;;;;;;5033029;28;20132;-87
2021/04/05 06:43:37;;;;;;;12.15;5.70;;;5.50;99.90;;;;;;5017249;28;20123;-86
2021/04/05 06:46:13;;;;;;;16.60;6.03;;;5.60;99.90;;;;;;5046662;28;20080;-85
2021/04/05 06:49:12;;;;;;;11.48;5.88;;;5.70;99.80;;;;;;5030349;28;20041;-85
2021/04/05 06:52:33;;;;;;;9.73;5.32;;;5.80;98.80;;;;;;5031036;28;20060;-85
2021/04/05 06:55:26;;;;;;;13.45;5.63;;;6.00;98.20;;;;;;5006504;28;20387;-86
2021/04/05 06:58:30;;;;;;;12.52;6.80;;;6.00;98.00;;;;;;5030996;28;21464;-86
2021/04/05 07:01:43;;;;;;;13.70;6.18;;;6.00;96.80;;;;;;5032780;28;20065;-88
2021/04/05 07:04:47;;;;;;;13.38;5.88;;;6.00;97.40;;;;;;5033655;28;20041;-85
2021/04/05 07:07:30;;;;;;;13.88;6.32;;;6.10;97.30;;;;;;5031605;28;20052;-85
2021/04/05 07:10:16;;;;;;;12.40;5.75;;;6.20;96.60;;;;;;5024028;28;20049;-87
2021/04/05 07:13:15;;;;;;;13.50;5.35;;;6.30;95.60;;;;;;5032564;28;20364;-87
2021/04/05 07:18:48;;;;;;;9.30;5.18;;;6.40;95.40;;;;;;5001579;28;20155;-83
2021/04/05 07:21:41;;;;;;;9.60;4.97;;;6.50;94.60;;;;;;5009229;28;20062;-85
2021/04/05 07:24:16;;;;;;;12.32;6.07;;;6.70;92.80;;;;;;4992650;28;20319;-85
2021/04/05 07:26:48;;;;;;;12.75;5.32;;;6.90;91.40;;;;;;4993670;28;20047;-87
2021/04/05 07:29:32;;;;;;;10.30;3.97;;;7.20;90.80;;;;;;4998384;28;20133;-88
2021/04/05 07:32:44;;;;;;;12.40;5.60;;;7.30;89.70;;;;;;4993877;28;20120;-88
2021/04/05 07:35:24;;;;;;;17.17;5.72;;;7.50;87.00;;;;;;4980245;28;20078;-86
2021/04/05 07:38:11;;;;;;;12.05;5.57;;;7.60;86.50;;;;;;4987379;28;20125;-86
2021/04/05 07:41:11;;;;;;;13.05;6.13;;;7.70;86.20;;;;;;4992456;28;20042;-86
2021/04/05 07:44:09;;;;;;;14.50;6.20;;;8.00;85.60;;;;;;4988052;28;20072;-87
2021/04/05 07:46:47;;;;;;;12.45;5.00;;;8.40;80.20;;;;;;4995983;28;20078;-82
2021/04/05 07:49:40;;;;;;;10.18;5.32;;;8.80;77.90;;;;;;4998598;28;20062;-85
2021/04/05 07:52:25;;;;;;;12.35;5.70;;;9.40;75.50;;;;;;5004409;28;20047;-83
2021/04/05 07:54:53;;;;;;;17.35;6.18;;;10.00;74.40;;;;;;5005818;28;20566;-83
2021/04/05 07:57:32;;;;;;;11.27;5.97;;;10.30;71.20;;;;;;4991139;28;20310;-84
2021/04/05 08:00:27;;;;;;;12.90;5.90;;;10.50;70.30;;;;;;4998037;28;20047;-86
2021/04/05 08:03:05;;;;;;;14.85;5.95;;;10.70;70.00;;;;;;4980118;28;20038;-84
2021/04/05 08:05:50;;;;;;;20.05;6.55;;;11.10;68.50;;;;;;4999165;28;20049;-85
2021/04/05 08:08:28;;;;;;;13.80;6.18;;;11.60;66.70;;;;;;4994247;28;20116;-85
2021/04/05 08:11:21;;;;;;;20.13;7.07;;;11.70;64.90;;;;;;4997477;28;20042;-84
2021/04/05 08:14:08;;;;;;;11.13;5.93;;;12.20;64.40;;;;;;4995632;28;20636;-84
2021/04/05 08:16:46;;;;;;;14.57;5.55;;;12.40;61.70;;;;;;4978664;28;20058;-84
2021/04/05 08:19:46;;;;;;;11.73;5.07;;;12.30;61.80;;;;;;4999066;28;20054;-84
2021/04/05 08:22:50;;;;;;;14.63;5.10;;;12.40;60.00;;;;;;4999964;28;20054;-86
2021/04/05 08:25:41;;;;;;;15.73;5.10;;;12.10;59.90;;;;;;4997593;28;20051;-85
2021/04/05 08:28:38;;;;;;;15.02;5.38;;;12.00;60.00;;;;;;4999919;28;20050;-85
2021/04/05 08:31:32;;;;;;;18.15;5.80;;;12.00;61.20;;;;;;4990831;28;20053;-87
2021/04/05 08:34:21;;;;;;;13.82;5.00;;;12.40;60.20;;;;;;5006212;28;20427;-86
2021/04/05 08:36:49;;;;;;;15.43;4.35;;;12.10;58.00;;;;;;4998147;28;20046;-84
2021/04/05 08:39:46;;;;;;;11.88;4.38;;;11.60;59.00;;;;;;4998536;28;20050;-85
2021/04/05 08:42:30;;;;;;;17.00;5.40;;;11.20;60.00;;;;;;4979693;28;20137;-86
2021/04/05 08:45:13;;;;;;;13.93;4.57;;;11.00;61.10;;;;;;4995009;28;20050;-88
2021/04/05 08:47:44;;;;;;;15.45;4.25;;;11.10;60.80;;;;;;4995771;28;20058;-84
2021/04/05 08:50:14;;;;;;;11.00;4.22;;;11.00;61.80;;;;;;4985765;28;20571;-84
2021/04/05 08:52:47;;;;;;;11.73;4.07;;;10.80;60.90;;;;;;4992728;28;20084;-85
2021/04/05 08:55:22;;;;;;;8.90;3.85;;;10.80;62.10;;;;;;4995125;28;20051;-86
2021/04/05 08:57:55;;;;;;;14.00;4.57;;;10.70;62.70;;;;;;4996419;28;20070;-84
2021/04/05 09:00:23;;;;;;;8.80;4.15;;;10.50;62.00;;;;;;4996823;28;20097;-85
2021/04/05 09:03:00;;;;;;;10.27;3.55;;;10.50;63.30;;;;;;4991663;28;20046;-85
2021/04/05 09:05:32;;;;;;;13.65;3.92;;;10.50;63.00;;;;;;4981044;28;20061;-86
2021/04/05 09:08:05;;;;;;;10.48;4.60;;;10.40;63.00;;;;;;5001756;28;20057;-85
2021/04/05 09:10:56;;;;;;;10.02;3.60;;;10.20;61.40;;;;;;4997414;28;20046;-84
2021/04/05 09:13:36;;;;;;;9.52;4.18;;;10.10;62.60;;;;;;4996487;28;20054;-85
2021/04/05 09:16:24;;;;;;;10.90;4.70;;;9.90;63.40;;;;;;4994085;28;20468;-88
2021/04/05 09:19:16;;;;;;;13.38;4.03;;;9.90;64.30;;;;;;5000067;28;20470;-88
2021/04/05 09:21:48;;;;;;;9.23;3.78;;;9.80;63.80;;;;;;4995960;28;20128;-89
2021/04/05 09:24:48;;;;;;;11.60;4.10;;;9.70;62.70;;;;;;5004566;28;20114;-87
2021/04/05 09:27:30;;;;;;;13.40;4.45;;;9.70;63.50;;;;;;4993183;28;20149;-88
2021/04/05 09:30:32;;;;;;;19.67;4.30;;;9.60;63.80;;;;;;4994751;28;20054;-86
2021/04/05 09:33:05;;;;;;;18.10;4.38;;;9.60;63.20;;;;;;4992287;28;20054;-87
2021/04/05 09:36:04;;;;;;;13.80;4.40;;;9.50;63.00;;;;;;4994428;28;20050;-86
2021/04/05 09:39:13;;;;;;;12.02;4.13;;;9.60;63.30;;;;;;4978764;28;20046;-87
2021/04/05 09:41:42;;;;;;;10.23;4.45;;;9.60;63.80;;;;;;4996351;28;20058;-90
2021/04/05 09:44:18;;;;;;;11.32;4.10;;;9.60;62.10;;;;;;4997526;28;20042;-88
2021/04/05 09:47:01;;;;;;;11.30;4.80;;;9.60;63.00;;;;;;4985233;28;20050;-89
2021/04/05 09:49:58;;;;;;;9.82;4.85;;;9.60;63.60;;;;;;4993113;28;20050;-89
2021/04/05 09:52:59;;;;;;;13.55;4.50;;;9.40;64.40;;;;;;4994500;28;20050;-89
2021/04/05 09:55:41;;;;;;;10.80;4.70;;;9.30;65.00;;;;;;4994658;28;20077;-87
2021/04/05 09:58:14;;;;;;;12.67;4.73;;;9.30;64.00;;;;;;4978126;28;20050;-90
2021/04/05 10:01:00;;;;;;;12.90;4.97;;;9.30;65.10;;;;;;4998930;28;20038;-87
2021/04/05 10:03:27;;;;;;;11.90;4.55;;;9.30;64.90;;;;;;4976890;28;20054;-88
2021/04/05 10:05:56;;;;;;;14.57;5.07;;;9.40;65.10;;;;;;4978610;28;20152;-85
2021/04/05 10:08:29;;;;;;;15.20;5.13;;;9.30;65.00;;;;;;4983242;28;20122;-89
2021/04/05 10:11:10;;;;;;;12.75;4.97;;;9.30;66.50;;;;;;5004170;28;20046;-87
2021/04/05 10:13:44;;;;;;;14.32;5.15;;;9.30;65.10;;;;;;4995344;28;20061;-86
2021/04/05 10:16:16;;;;;;;13.48;4.47;;;9.30;65.30;;;;;;4996002;28;20058;-89
2021/04/05 10:18:52;;;;;;;8.57;4.03;;;9.20;64.90;;;;;;4984131;28;750911;-87
2021/04/05 10:21:24;;;;;;;10.85;4.22;;;9.10;65.10;;;;;;5000156;28;20419;-86
2021/04/05 10:23:52;;;;;;;13.20;5.43;;;9.20;64.80;;;;;;5001652;28;20142;-86
2021/04/05 10:26:20;;;;;;;12.27;4.70;;;9.30;64.60;;;;;;5010394;28;20049;-86
2021/04/05 10:28:48;;;;;;;15.25;4.50;;;9.30;64.20;;;;;;5002708;28;20042;-84
2021/04/05 10:31:21;;;;;;;10.77;4.65;;;9.30;64.30;;;;;;5008714;28;20057;-87
2021/04/05 10:33:59;;;;;;;14.65;5.35;;;9.30;64.40;;;;;;4994809;28;20384;-86
2021/04/05 10:36:30;;;;;;;12.40;5.15;;;9.40;64.90;;;;;;4994014;28;20056;-87
2021/04/05 10:39:00;;;;;;;15.27;4.30;;;9.40;63.80;;;;;;5007651;28;20038;-87
2021/04/05 10:41:30;;;;;;;10.30;5.00;;;9.50;62.70;;;;;;4995419;28;20378;-87
2021/04/05 10:44:09;;;;;;;11.45;4.28;;;9.50;61.50;;;;;;4991027;28;20070;-88
2021/04/05 10:46:48;;;;;;;18.10;4.78;;;9.50;62.10;;;;;;4997372;28;20052;-86
2021/04/05 10:49:18;;;;;;;13.85;5.32;;;9.60;62.60;;;;;;4976798;28;20767;-83
2021/04/05 10:52:31;;;;;;;13.52;4.32;;;9.70;61.40;;;;;;5007079;28;20360;-87
2021/04/05 10:55:01;;;;;;;12.60;5.05;;;9.70;60.10;;;;;;5010227;28;20356;-89
2021/04/05 10:57:34;;;;;;;14.40;4.47;;;9.80;59.20;;;;;;4994784;28;20336;-86
2021/04/05 11:00:06;;;;;;;10.45;5.00;;;9.90;58.70;;;;;;4982136;28;20078;-86
2021/04/05 11:02:36;;;;;;;14.68;5.20;;;9.90;58.40;;;;;;4983915;28;20054;-87
2021/04/05 11:05:10;;;;;;;12.50;4.43;;;10.10;58.40;;;;;;4996511;28;20051;-88
2021/04/05 11:07:42;;;;;;;11.60;4.13;;;10.40;57.10;;;;;;4973176;28;20122;-86
2021/04/05 11:10:34;;;;;;;10.18;4.50;;;10.60;56.60;;;;;;5000915;28;20096;-87
2021/04/05 11:13:11;;;;;;;9.35;4.30;;;10.90;55.40;;;;;;4996931;28;20070;-89
2021/04/05 11:15:41;;;;;;;9.40;3.72;;;11.00;54.60;;;;;;5013539;28;20058;-89
2021/04/05 11:18:13;;;;;;;9.82;3.97;;;11.10;52.00;;;;;;5014107;28;20062;-90
2021/04/05 11:21:05;;;;;;;7.60;3.47;;;11.20;51.40;;;;;;4979777;28;20038;-86
2021/04/05 11:23:35;;;;;;;10.30;3.35;;;11.30;50.00;;;;;;4995039;28;20061;-88
2021/04/05 11:26:05;;;;;;;6.03;3.63;;;11.60;49.90;;;;;;4995609;28;20125;-85
2021/04/05 11:28:40;;;;;;;7.13;3.53;;;11.60;49.60;;;;;;4982158;28;20141;-89
2021/04/05 11:31:13;;;;;;;9.00;3.90;;;11.60;49.60;;;;;;4993780;28;20842;-87
2021/04/05 11:33:47;;;;;;;11.90;4.22;;;11.40;50.00;;;;;;5001088;28;20042;-83
2021/04/05 11:36:15;;;;;;;14.50;3.67;;;11.40;50.10;;;;;;5001349;28;20066;-90
2021/04/05 11:38:47;;;;;;;11.25;4.47;;;11.30;50.10;;;;;;4995161;28;20360;-89
2021/04/05 11:41:18;;;;;;;10.90;3.70;;;11.20;50.60;;;;;;4997102;28;20061;-86
2021/04/05 11:44:00;;;;;;;10.73;4.38;;;11.20;50.80;;;;;;5007758;28;20059;-84
2021/04/05 11:46:33;;;;;;;12.32;4.57;;;11.30;51.30;;;;;;4984950;28;20061;-86
2021/04/05 11:49:11;;;;;;;15.35;4.53;;;11.40;50.40;;;;;;4987815;28;20165;-84
2021/04/05 11:52:06;;;;;;;12.98;4.47;;;11.60;50.70;;;;;;4995117;28;20050;-89
2021/04/05 11:54:37;;;;;;;12.85;4.72;;;11.90;50.80;;;;;;4992968;28;20081;-87
2021/04/05 11:57:41;;;;;;;12.82;4.85;;;12.00;50.10;;;;;;4986125;28;20467;-87
2021/04/05 12:00:14;;;;;;;9.25;4.10;;;12.10;50.40;;;;;;4988548;28;20050;-86
2021/04/05 12:03:13;;;;;;;12.05;4.90;;;12.20;50.20;;;;;;4993834;28;20184;-85
2021/04/05 12:05:55;;;;;;;13.45;5.28;;;12.30;49.80;;;;;;4999990;28;20041;-87
2021/04/05 12:08:26;;;;;;;11.48;5.28;;;12.00;50.60;;;;;;4982551;28;20065;-86
2021/04/05 12:11:14;;;;;;;11.60;5.65;;;12.00;51.70;;;;;;4983794;28;20221;-84
2021/04/05 12:13:50;;;;;;;13.82;5.35;;;12.10;50.80;;;;;;5004987;28;20119;-85
2021/04/05 12:16:24;;;;;;;16.35;6.13;;;12.20;51.30;;;;;;4982458;28;20068;-85
2021/04/05 12:18:58;;;;;;;17.83;6.40;;;12.20;51.30;;;;;;4991531;28;20066;-85
2021/04/05 12:21:29;;;;;;;18.58;6.28;;;12.20;51.80;;;;;;4978691;28;20393;-86
2021/04/05 12:24:22;;;;;;;14.07;6.73;;;12.10;51.70;;;;;;4980113;28;20131;-86
2021/04/05 12:26:53;;;;;;;;;;;12.10;52.10;;;;;;5000608;28;20479;-86
2021/04/05 12:29:24;;;;;;;12.80;6.15;;;11.90;52.60;;;;;;4995542;28;19929;-85
2021/04/05 12:31:54;;;;;;;13.25;6.70;;;11.80;54.20;;;;;;4977569;28;20046;-86
2021/04/05 12:34:28;;;;;;;19.60;6.70;;;11.80;54.20;;;;;;4983579;28;20046;-86
2021/04/05 12:37:17;;;;;;;16.50;7.10;;;11.60;54.40;;;;;;4981423;28;20046;-85
2021/04/05 12:39:52;;;;;;;18.40;8.13;;;11.70;55.30;;;;;;4974508;28;20351;-85
2021/04/05 12:42:29;;;;;;;18.95;8.27;;;11.80;55.00;;;;;;4992567;28;20194;-84
2021/04/05 12:44:59;;;;;;;19.65;8.40;;;11.70;55.30;;;;;;4992427;28;20057;-87
2021/04/05 12:47:37;;;;;;;19.95;8.68;;;11.50;56.70;;;;;;4990752;28;20046;-86
2021/04/05 12:50:21;;;;;;;16.35;7.75;;;11.40;56.50;;;;;;4991569;28;20078;-86
2021/04/05 12:52:49;;;;;;;19.73;8.38;;;11.30;56.90;;;;;;4992596;28;20129;-86
2021/04/05 12:55:21;;;;;;;19.77;9.25;;;11.20;57.80;;;;;;4995180;28;20069;-86
2021/04/05 12:58:13;;;;;;;22.37;10.50;;;10.70;58.30;;;;;;5000087;28;20062;-86
2021/04/05 13:00:43;;;;;;;18.97;9.37;;;10.40;59.80;;;;;;4981659;28;20053;-87
2021/04/05 13:03:30;;;;;;;21.83;8.82;;;10.30;59.80;;;;;;4981708;28;20498;-86
2021/04/05 13:06:36;;;;;;;18.75;8.95;;;10.20;60.80;;;;;;4994396;28;20100;-87
2021/04/05 13:09:35;;;;;;;21.20;9.73;;;10.10;61.60;;;;;;4978947;28;20108;-85
2021/04/05 13:12:21;;;;;;;27.90;9.40;;;10.00;62.70;;;;;;4995880;28;20100;-86
2021/04/05 13:15:13;;;;;;;26.73;10.32;;;10.00;64.00;;;;;;4994406;28;20128;-85
2021/04/05 13:17:47;;;;;;;21.70;9.75;;;9.90;65.30;;;;;;4992997;28;20459;-85
2021/04/05 13:20:19;;;;;;;24.70;10.32;;;9.90;65.90;;;;;;4990916;28;20051;-85
2021/04/05 13:22:56;;;;;;;24.45;10.98;;;9.80;67.10;;;;;;4995378;28;20105;-86
2021/04/05 13:25:35;;;;;;;26.52;10.60;;;9.60;68.30;;;;;;4985900;28;20567;-86
2021/04/05 13:28:21;;;;;;;23.63;10.40;;;9.50;68.70;;;;;;4980191;28;20070;-88
2021/04/05 13:31:12;;;;;;;20.52;10.13;;;9.50;69.40;;;;;;5000289;28;20116;-85
2021/04/05 13:33:45;;;;;;;22.75;10.18;;;9.50;70.40;;;;;;4995937;28;20189;-86
2021/04/05 13:36:19;;;;;;;28.00;10.45;;;9.60;70.40;;;;;;4999447;28;20046;-85
2021/04/05 13:39:18;;;;;;;23.05;10.27;;;9.60;70.30;;;;;;4982834;28;20050;-86
2021/04/05 13:41:45;;;;;;;22.17;9.52;;;9.60;70.90;;;;;;4997355;28;20525;-87